Time;durP1;ratioP1;P1;durP2;ratioP2;P2;SDS_P1;SDS_P2;PMS_P1;PMS_P2;Temp;Humidity;BMP_temperature;BMP_pressure;BME280_temperature;BME280_humidity;BME280_pressure;Samples;Min_cycle;Max_cycle;Signal;HPM_P1;HPM_P2
2022/11/24 00:01:16;;;;;;;2.95;2.65;;;10.50;71.30;;;;;;5007698;28;20044;-76
2022/11/24 00:03:44;;;;;;;5.22;3.03;;;10.50;71.40;;;;;;5006589;28;20089;-76
2022/11/24 00:06:15;;;;;;;4.75;3.10;;;10.50;71.50;;;;;;5007695;28;20030;-77
2022/11/24 00:08:43;;;;;;;4.53;3.00;;;10.50;71.50;;;;;;4994819;28;20115;-77
2022/11/24 00:11:18;;;;;;;3.28;2.65;;;10.40;71.10;;;;;;5007821;28;20559;-77
2022/11/24 00:13:44;;;;;;;3.65;2.90;;;10.40;71.00;;;;;;5005945;28;20061;-78
2022/11/24 00:16:21;;;;;;;4.28;3.20;;;10.50;71.00;;;;;;5007694;28;20034;-77
2022/11/24 00:18:48;;;;;;;4.28;3.17;;;10.50;71.00;;;;;;5007458;28;20087;-77
2022/11/24 00:21:16;;;;;;;4.43;2.92;;;10.50;71.10;;;;;;5005036;28;20038;-76
2022/11/24 00:23:42;;;;;;;4.03;2.83;;;10.50;71.10;;;;;;5004684;28;20795;-78
2022/11/24 00:26:11;;;;;;;4.65;3.25;;;10.50;71.10;;;;;;5004697;28;20046;-76
2022/11/24 00:28:38;;;;;;;5.05;2.47;;;10.50;71.30;;;;;;5007358;28;20078;-76
2022/11/24 00:31:14;;;;;;;3.72;2.85;;;10.50;71.30;;;;;;5006915;28;20030;-76
2022/11/24 00:33:39;;;;;;;;;;;10.50;71.30;;;;;;5005159;28;20178;-77
2022/11/24 00:36:05;;;;;;;6.32;3.08;;;10.50;71.50;;;;;;5006005;28;20749;-76
2022/11/24 00:38:31;;;;;;;3.28;2.83;;;10.50;71.50;;;;;;5006765;28;20041;-76
2022/11/24 00:40:57;;;;;;;5.35;3.22;;;10.50;71.40;;;;;;5007218;28;20057;-77
2022/11/24 00:43:23;;;;;;;3.40;3.00;;;10.50;71.10;;;;;;5006944;28;20066;-77
2022/11/24 00:45:49;;;;;;;3.47;3.05;;;10.50;71.00;;;;;;4988263;28;20065;-76
2022/11/24 00:48:15;;;;;;;5.03;3.22;;;10.50;70.60;;;;;;5006878;28;20030;-78
2022/11/24 00:50:41;;;;;;;4.60;3.25;;;10.50;70.60;;;;;;5005154;28;20030;-77
2022/11/24 00:53:07;;;;;;;3.95;3.05;;;10.50;70.50;;;;;;5007152;28;20404;-76
2022/11/24 00:55:33;;;;;;;6.00;3.25;;;10.50;70.50;;;;;;5005621;28;20072;-77
2022/11/24 00:57:59;;;;;;;4.95;3.33;;;10.40;70.40;;;;;;5006513;28;20074;-76
2022/11/24 01:00:25;;;;;;;4.25;3.38;;;10.50;70.40;;;;;;5005515;28;20061;-76
2022/11/24 01:02:51;;;;;;;4.47;3.22;;;10.50;70.20;;;;;;5007045;28;20064;-76
2022/11/24 01:05:17;;;;;;;4.00;3.08;;;10.50;70.30;;;;;;5007340;28;20060;-77
2022/11/24 01:07:43;;;;;;;4.65;3.63;;;10.50;70.40;;;;;;5004600;28;20512;-76
2022/11/24 01:10:09;;;;;;;4.60;3.42;;;10.50;70.40;;;;;;4987589;28;20104;-76
2022/11/24 01:12:35;;;;;;;4.80;3.17;;;10.50;70.40;;;;;;4988982;28;20129;-76
2022/11/24 01:15:01;;;;;;;4.20;3.55;;;10.50;70.50;;;;;;5005812;28;20034;-76
2022/11/24 01:17:27;;;;;;;5.55;3.28;;;10.50;70.60;;;;;;5007154;28;20034;-77
2022/11/24 01:19:53;;;;;;;5.22;3.75;;;10.50;70.60;;;;;;5006414;28;20449;-77
2022/11/24 01:22:18;;;;;;;5.20;3.03;;;10.50;70.60;;;;;;5005860;28;20030;-77
2022/11/24 01:24:44;;;;;;;4.50;2.80;;;10.50;70.70;;;;;;5005425;28;20080;-78
2022/11/24 01:27:10;;;;;;;6.50;3.80;;;10.40;70.50;;;;;;5006334;28;20038;-78
2022/11/24 01:29:36;;;;;;;6.50;3.60;;;10.50;70.20;;;;;;4988777;28;20037;-78
2022/11/24 01:32:02;;;;;;;4.78;3.50;;;10.50;70.20;;;;;;5004604;28;20551;-77
2022/11/24 01:34:28;;;;;;;5.07;3.55;;;10.50;70.60;;;;;;5006060;28;20401;-77
2022/11/24 01:36:54;;;;;;;5.55;3.78;;;10.40;70.50;;;;;;5005645;28;20513;-78
2022/11/24 01:39:19;;;;;;;5.88;3.50;;;10.50;70.60;;;;;;5005077;28;20069;-76
2022/11/24 01:41:45;;;;;;;5.22;3.72;;;10.40;70.70;;;;;;4987340;28;20022;-78
2022/11/24 01:44:25;;;;;;;6.28;3.30;;;10.40;70.90;;;;;;4985796;28;20045;-77
2022/11/24 01:46:57;;;;;;;7.15;3.85;;;10.50;70.80;;;;;;5003242;28;20030;-76
2022/11/24 01:49:33;;;;;;;5.35;3.67;;;10.40;70.50;;;;;;4988560;28;20524;-77
2022/11/24 01:52:40;;;;;;;4.05;3.05;;;10.40;70.80;;;;;;5005777;28;21846;-77
2022/11/24 01:55:10;;;;;;;3.78;2.95;;;10.40;70.70;;;;;;4972896;28;20044;-76
2022/11/24 01:57:41;;;;;;;4.70;3.42;;;10.40;70.70;;;;;;4988069;28;20042;-76
2022/11/24 02:00:09;;;;;;;4.93;4.03;;;10.40;70.50;;;;;;5005142;28;20046;-76
2022/11/24 02:02:44;;;;;;;5.35;3.70;;;10.40;69.90;;;;;;4988497;28;20038;-76
2022/11/24 02:05:40;;;;;;;5.63;3.92;;;10.50;70.00;;;;;;5005880;28;20558;-77
2022/11/24 02:08:20;;;;;;;5.18;3.80;;;10.50;69.60;;;;;;5004077;28;20634;-78
2022/11/24 02:10:47;;;;;;;6.35;3.75;;;10.40;69.70;;;;;;4983590;28;20044;-78
2022/11/24 02:13:14;;;;;;;5.80;3.40;;;10.40;69.70;;;;;;5005399;28;20030;-78
2022/11/24 02:15:40;;;;;;;5.85;4.03;;;10.50;70.00;;;;;;4987573;28;20044;-77
2022/11/24 02:18:06;;;;;;;5.57;3.90;;;10.50;69.90;;;;;;4984747;28;20536;-78
2022/11/24 02:20:33;;;;;;;4.78;3.28;;;10.40;70.10;;;;;;5006077;28;20040;-78
2022/11/24 02:23:13;;;;;;;5.97;3.92;;;10.50;70.40;;;;;;5004961;28;20038;-78
2022/11/24 02:26:09;;;;;;;4.93;3.53;;;10.50;70.30;;;;;;5004823;28;20399;-77
2022/11/24 02:28:36;;;;;;;5.68;3.95;;;10.40;70.40;;;;;;4987457;28;20033;-78
2022/11/24 02:31:03;;;;;;;5.85;3.67;;;10.40;70.50;;;;;;4986183;28;20503;-76
2022/11/24 02:33:29;;;;;;;5.88;3.78;;;10.40;70.60;;;;;;5005171;28;20121;-77
2022/11/24 02:35:56;;;;;;;4.60;3.20;;;10.40;70.40;;;;;;5004566;28;20037;-77
2022/11/24 02:38:30;;;;;;;4.65;3.58;;;10.40;70.40;;;;;;4985127;28;20040;-77
2022/11/24 02:40:58;;;;;;;5.55;3.63;;;10.40;70.50;;;;;;4986154;28;20033;-76
2022/11/24 02:43:27;;;;;;;6.00;3.60;;;10.40;70.40;;;;;;5004904;28;20073;-77
2022/11/24 02:45:52;;;;;;;5.50;3.97;;;10.40;70.00;;;;;;4989544;28;20057;-77
2022/11/24 02:48:18;;;;;;;5.60;3.67;;;10.40;70.00;;;;;;5008383;28;20058;-76
2022/11/24 02:50:44;;;;;;;5.88;3.97;;;10.40;70.30;;;;;;5009320;28;20392;-77
2022/11/24 02:53:10;;;;;;;4.38;3.22;;;10.40;70.20;;;;;;5008838;28;20107;-78
2022/11/24 02:55:36;;;;;;;5.95;4.05;;;10.40;70.20;;;;;;4991454;28;20432;-79
2022/11/24 02:58:02;;;;;;;5.20;3.47;;;10.50;70.60;;;;;;5008317;28;20049;-77
2022/11/24 03:00:28;;;;;;;5.45;3.80;;;10.40;70.40;;;;;;4990589;28;20045;-77
2022/11/24 03:02:54;;;;;;;4.45;3.50;;;10.40;70.60;;;;;;5007984;28;20026;-77
2022/11/24 03:05:19;;;;;;;7.30;3.70;;;10.50;71.00;;;;;;5007404;28;20038;-76
2022/11/24 03:07:45;;;;;;;4.80;3.63;;;10.40;70.80;;;;;;5008177;28;20128;-76
2022/11/24 03:10:11;;;;;;;5.10;3.40;;;10.40;70.80;;;;;;5008610;28;20042;-77
2022/11/24 03:12:37;;;;;;;4.90;3.60;;;10.40;70.60;;;;;;5008441;28;20042;-77
2022/11/24 03:15:04;;;;;;;4.40;3.28;;;10.40;70.70;;;;;;5008055;28;20033;-77
2022/11/24 03:17:30;;;;;;;5.50;3.80;;;10.50;70.40;;;;;;4991558;28;20036;-76
2022/11/24 03:19:56;;;;;;;4.75;3.47;;;10.50;70.30;;;;;;4990530;28;20037;-77
2022/11/24 03:22:22;;;;;;;5.68;3.95;;;10.40;69.90;;;;;;4973895;28;20091;-77
2022/11/24 03:24:48;;;;;;;5.35;3.88;;;10.50;69.90;;;;;;4991100;28;20794;-77
2022/11/24 03:27:14;;;;;;;5.72;3.95;;;10.50;70.00;;;;;;5008399;28;20369;-78
2022/11/24 03:29:39;;;;;;;6.18;4.15;;;10.50;70.20;;;;;;4989077;28;20121;-77
2022/11/24 03:32:05;;;;;;;5.32;3.63;;;10.50;70.20;;;;;;4989055;28;20072;-77
2022/11/24 03:34:31;;;;;;;5.90;3.90;;;10.50;70.40;;;;;;4990665;28;20030;-77
2022/11/24 03:36:57;;;;;;;6.32;3.63;;;10.50;70.60;;;;;;5007260;28;20030;-81
2022/11/24 03:39:23;;;;;;;4.38;3.47;;;10.50;70.50;;;;;;4985591;28;20141;-78
2022/11/24 03:41:50;;;;;;;5.65;3.88;;;10.50;70.50;;;;;;5006374;28;20034;-81
2022/11/24 03:44:16;;;;;;;6.28;4.07;;;10.50;70.60;;;;;;5008024;28;20026;-79
2022/11/24 03:46:42;;;;;;;6.30;4.13;;;10.50;70.70;;;;;;5005598;28;20714;-80
2022/11/24 03:49:08;;;;;;;5.95;4.25;;;10.50;71.00;;;;;;4985615;28;20072;-81
2022/11/24 03:51:34;;;;;;;5.57;4.35;;;10.50;70.40;;;;;;5003989;28;20039;-81
2022/11/24 03:54:00;;;;;;;5.63;3.75;;;10.50;70.00;;;;;;5004340;28;20088;-83
2022/11/24 03:56:26;;;;;;;5.93;4.32;;;10.50;70.00;;;;;;5004073;28;20041;-81
2022/11/24 03:58:52;;;;;;;6.95;4.28;;;10.50;70.20;;;;;;4986285;28;20038;-82
2022/11/24 04:01:18;;;;;;;5.38;3.97;;;10.50;69.90;;;;;;4973251;28;20044;-78
2022/11/24 04:03:44;;;;;;;6.57;4.13;;;10.50;69.70;;;;;;4988361;28;20029;-81
2022/11/24 04:06:10;;;;;;;6.03;3.83;;;10.50;69.90;;;;;;5003922;28;20037;-81
2022/11/24 04:08:36;;;;;;;8.55;4.10;;;10.50;70.00;;;;;;5004519;28;20448;-80
2022/11/24 04:11:02;;;;;;;6.25;4.40;;;10.60;70.10;;;;;;4972731;28;20080;-76
2022/11/24 04:13:28;;;;;;;7.82;4.03;;;10.50;70.20;;;;;;4986826;28;20038;-76
2022/11/24 04:15:54;;;;;;;6.03;3.83;;;10.50;70.30;;;;;;4984227;28;20038;-75
2022/11/24 04:18:20;;;;;;;4.95;3.60;;;10.50;70.60;;;;;;4993382;28;20854;-75
2022/11/24 04:20:49;;;;;;;5.63;3.88;;;10.50;70.60;;;;;;5003552;28;20033;-76
2022/11/24 04:23:15;;;;;;;7.25;3.92;;;10.50;71.00;;;;;;5002225;28;20066;-76
2022/11/24 04:25:43;;;;;;;6.57;3.90;;;10.50;70.70;;;;;;4982779;28;20049;-75
2022/11/24 04:28:09;;;;;;;6.32;4.03;;;10.50;71.10;;;;;;4987910;28;20030;-75
2022/11/24 04:30:37;;;;;;;5.88;4.05;;;10.50;71.20;;;;;;4988654;28;20030;-74
2022/11/24 04:33:03;;;;;;;5.82;4.03;;;10.50;71.00;;;;;;4987611;28;20124;-74
2022/11/24 04:35:29;;;;;;;6.05;4.05;;;10.50;70.60;;;;;;5004052;28;20575;-74
2022/11/24 04:37:55;;;;;;;6.35;4.22;;;10.50;70.80;;;;;;4988013;28;20042;-76
2022/11/24 04:40:21;;;;;;;5.20;3.67;;;10.50;70.50;;;;;;5005594;28;20065;-75
2022/11/24 04:42:55;;;;;;;4.53;3.70;;;10.50;70.80;;;;;;4971804;28;20030;-76
2022/11/24 04:45:23;;;;;;;9.15;4.78;;;10.50;71.20;;;;;;4988107;28;20500;-78
2022/11/24 04:47:48;;;;;;;7.15;3.90;;;10.50;70.80;;;;;;4963995;28;20126;-77
2022/11/24 04:50:15;;;;;;;6.95;3.97;;;10.50;71.00;;;;;;5006073;28;20065;-76
2022/11/24 04:52:42;;;;;;;6.05;4.20;;;10.50;71.20;;;;;;5003350;28;20030;-76
2022/11/24 04:55:08;;;;;;;8.25;4.30;;;10.50;71.70;;;;;;4993233;28;20188;-74
2022/11/24 04:57:33;;;;;;;7.05;4.00;;;10.50;71.70;;;;;;4989141;28;20144;-74
2022/11/24 04:59:59;;;;;;;8.13;4.05;;;10.50;72.30;;;;;;5004944;28;20049;-76
2022/11/24 05:02:25;;;;;;;8.65;4.75;;;10.50;73.30;;;;;;5003642;28;20445;-75
2022/11/24 05:04:51;;;;;;;10.13;5.15;;;10.50;72.80;;;;;;5005773;28;20030;-75
2022/11/24 05:07:18;;;;;;;9.60;4.78;;;10.50;73.30;;;;;;4985916;28;20042;-75
2022/11/24 05:12:30;;;;;;;10.23;4.78;;;10.50;74.40;;;;;;4991106;28;20117;-75
2022/11/24 05:15:01;;;;;;;8.30;4.55;;;10.50;75.10;;;;;;5004409;28;20108;-75
2022/11/24 05:17:35;;;;;;;11.02;4.47;;;10.50;75.20;;;;;;5005438;28;20093;-75
2022/11/24 05:20:02;;;;;;;8.10;4.55;;;10.50;74.90;;;;;;5004454;28;20528;-75
2022/11/24 05:22:30;;;;;;;11.25;5.03;;;10.50;75.10;;;;;;5005901;28;20045;-75
2022/11/24 05:24:56;;;;;;;8.77;4.50;;;10.50;75.10;;;;;;5005094;28;20030;-75
2022/11/24 05:27:22;;;;;;;7.90;4.45;;;10.50;75.50;;;;;;4986309;28;20598;-76
2022/11/24 05:29:48;;;;;;;10.45;4.75;;;10.50;75.50;;;;;;5005297;28;20148;-76
2022/11/24 05:32:14;;;;;;;9.25;4.60;;;10.50;75.80;;;;;;5005925;28;20579;-76
2022/11/24 05:34:40;;;;;;;7.53;4.57;;;10.60;75.80;;;;;;5004507;28;20040;-76
2022/11/24 05:37:07;;;;;;;7.88;4.50;;;10.50;75.90;;;;;;5004438;28;20038;-76
2022/11/24 05:39:34;;;;;;;8.70;4.60;;;10.50;75.90;;;;;;5004389;28;20489;-75
2022/11/24 05:42:39;;;;;;;7.35;4.88;;;10.50;76.10;;;;;;5003583;28;20048;-76
2022/11/24 05:44:51;;;;;;;8.43;4.90;;;10.60;76.20;;;;;;5004099;28;20026;-76
2022/11/24 05:47:17;;;;;;;8.30;4.20;;;10.50;76.10;;;;;;5005493;28;20124;-76
2022/11/24 05:49:43;;;;;;;8.38;4.50;;;10.50;75.20;;;;;;4986195;28;20041;-73
2022/11/24 05:52:09;;;;;;;9.65;5.07;;;10.50;74.70;;;;;;5004956;28;20034;-76
2022/11/24 05:54:35;;;;;;;7.30;4.50;;;10.50;73.80;;;;;;4987091;28;20030;-76
2022/11/24 05:57:01;;;;;;;7.47;4.13;;;10.50;73.40;;;;;;4984944;28;20025;-76
2022/11/24 05:59:27;;;;;;;7.40;4.28;;;10.50;73.40;;;;;;4995797;28;20041;-76
2022/11/24 06:01:53;;;;;;;7.72;4.95;;;10.50;73.50;;;;;;4970608;28;20088;-73
2022/11/24 06:04:19;;;;;;;9.70;4.95;;;10.50;71.90;;;;;;5004257;28;20160;-73
2022/11/24 06:06:45;;;;;;;7.22;4.90;;;10.40;70.80;;;;;;4984488;28;20038;-73
2022/11/24 06:09:11;;;;;;;8.70;4.82;;;10.40;70.80;;;;;;5004838;28;20128;-73
2022/11/24 06:11:37;;;;;;;10.52;5.43;;;10.40;72.90;;;;;;4995990;28;20560;-73
2022/11/24 06:14:03;;;;;;;8.65;5.18;;;10.40;71.90;;;;;;5004337;28;20531;-74
2022/11/24 06:16:29;;;;;;;7.85;5.50;;;10.50;71.90;;;;;;5003128;28;20034;-73
2022/11/24 06:18:55;;;;;;;9.85;6.00;;;10.50;71.00;;;;;;5005614;28;20069;-73
2022/11/24 06:21:21;;;;;;;8.55;5.32;;;10.50;70.50;;;;;;5008980;28;20145;-73
2022/11/24 06:23:48;;;;;;;8.90;5.30;;;10.30;92.80;;;;;;5009447;28;20092;-73
2022/11/24 06:26:14;;;;;;;10.05;5.03;;;10.40;92.90;;;;;;5009173;28;20134;-73
2022/11/24 06:28:40;;;;;;;11.52;5.43;;;10.50;92.10;;;;;;5007841;28;20080;-73
2022/11/24 06:31:06;;;;;;;7.35;5.18;;;10.50;91.70;;;;;;5009477;28;20085;-73
2022/11/24 06:33:33;;;;;;;7.85;4.68;;;10.50;90.80;;;;;;5009366;28;20034;-73
2022/11/24 06:36:02;;;;;;;7.18;4.80;;;10.60;88.30;;;;;;5008698;28;20034;-73
2022/11/24 06:38:28;;;;;;;7.88;5.47;;;10.60;86.40;;;;;;5009130;28;20041;-74
2022/11/24 06:40:58;;;;;;;7.20;4.70;;;;;;;;;;4990271;28;20045;-74
2022/11/24 06:43:26;;;;;;;7.68;4.90;;;;;;;;;;5005816;28;20088;-74
2022/11/24 06:45:52;;;;;;;7.90;4.82;;;;;;;;;;4974411;28;20030;-75
2022/11/24 06:48:18;;;;;;;6.97;4.55;;;;;;;;;;5007272;28;20081;-75
2022/11/24 06:50:45;;;;;;;8.25;5.55;;;;;;;;;;4989599;28;20108;-74
2022/11/24 06:53:11;;;;;;;7.68;4.78;;;;;;;;;;4990657;28;20509;-74
2022/11/24 06:55:38;;;;;;;8.95;5.07;;;;;;;;;;5008258;28;20030;-74
2022/11/24 06:58:04;;;;;;;6.60;4.50;;;;;;;;;;4989862;28;20038;-74
2022/11/24 07:00:31;;;;;;;6.65;4.65;;;;;;;;;;4974053;28;20036;-75
2022/11/24 07:03:00;;;;;;;7.63;4.72;;;;;;;;;;5007875;28;20034;-75
2022/11/24 07:05:26;;;;;;;7.32;5.10;;;;;;;;;;4988961;28;20030;-75
2022/11/24 07:07:53;;;;;;;8.77;5.32;;;;;;;;;;4986216;28;20066;-75
2022/11/24 07:10:19;;;;;;;7.45;4.97;;;;;;;;;;5005937;28;20512;-74
2022/11/24 07:12:45;;;;;;;8.60;5.57;;;;;;;;;;5006584;28;20038;-74
2022/11/24 07:15:11;;;;;;;7.00;5.25;;;;;;;;;;4988991;28;20141;-74
2022/11/24 07:17:38;;;;;;;7.63;5.57;;;;;;;;;;5006423;28;20034;-74
2022/11/24 07:20:05;;;;;;;8.70;5.20;;;;;;;;;;4972799;28;20393;-74
2022/11/24 07:22:32;;;;;;;10.10;5.78;;;;;;;;;;5006258;28;21396;-73
2022/11/24 07:24:58;;;;;;;9.32;5.70;;;;;;;;;;5004480;28;20296;-74
2022/11/24 07:27:24;;;;;;;7.63;5.38;;;;;;;;;;5006291;28;20034;-74
2022/11/24 07:29:50;;;;;;;8.32;6.00;;;;;;;;;;5004444;28;20026;-75
2022/11/24 07:32:17;;;;;;;8.85;5.68;;;;;;;;;;4995051;28;20416;-75
2022/11/24 07:34:42;;;;;;;8.15;5.80;;;10.20;54.70;;;;;;5004215;28;20038;-75
2022/11/24 07:37:08;;;;;;;8.50;5.75;;;10.10;55.40;;;;;;5005129;28;20045;-75
2022/11/24 07:39:34;;;;;;;10.38;5.82;;;10.00;55.50;;;;;;5004604;28;20042;-75
2022/11/24 07:42:00;;;;;;;8.52;5.78;;;9.90;55.50;;;;;;5005267;28;20025;-75
2022/11/24 07:44:26;;;;;;;10.15;6.20;;;9.90;55.70;;;;;;5006295;28;20030;-74
2022/11/24 07:46:52;;;;;;;8.57;5.63;;;9.80;55.70;;;;;;4986446;28;20499;-75
2022/11/24 07:49:18;;;;;;;8.95;6.20;;;9.80;55.70;;;;;;4986333;28;20586;-75
2022/11/24 07:51:45;;;;;;;9.90;5.97;;;9.70;55.80;;;;;;5005011;28;20040;-75
2022/11/24 07:54:11;;;;;;;10.75;5.93;;;9.70;56.00;;;;;;5005887;28;20038;-75
2022/11/24 07:56:37;;;;;;;9.73;6.20;;;9.70;56.30;;;;;;5006228;28;20041;-75
2022/11/24 07:59:03;;;;;;;9.65;6.18;;;9.70;56.40;;;;;;5005800;28;20464;-74
2022/11/24 08:01:29;;;;;;;10.57;6.38;;;9.70;58.10;;;;;;5005856;28;20112;-76
2022/11/24 08:03:55;;;;;;;9.50;6.03;;;9.70;61.30;;;;;;4988042;28;20105;-75
2022/11/24 08:06:21;;;;;;;8.40;5.95;;;9.60;61.00;;;;;;5005244;28;20030;-74
2022/11/24 08:08:47;;;;;;;9.95;6.03;;;9.60;59.60;;;;;;4964518;28;1181558;-73
2022/11/24 08:11:16;;;;;;;11.02;5.80;;;9.50;56.90;;;;;;4989516;28;20033;-75
2022/11/24 08:13:42;;;;;;;12.23;6.70;;;9.40;56.60;;;;;;5003968;28;20598;-75
2022/11/24 08:16:14;;;;;;;9.65;6.65;;;9.40;56.60;;;;;;5006383;28;20129;-75
2022/11/24 08:18:41;;;;;;;10.88;6.28;;;9.40;56.70;;;;;;5005798;28;20053;-75
2022/11/24 08:21:11;;;;;;;9.63;5.55;;;9.30;56.70;;;;;;4988771;28;20519;-75
2022/11/24 08:23:37;;;;;;;9.82;6.40;;;9.40;64.20;;;;;;5005734;28;20033;-75
2022/11/24 08:26:12;;;;;;;9.35;5.85;;;9.40;78.10;;;;;;5005922;28;20057;-75
2022/11/24 08:28:38;;;;;;;9.15;5.78;;;9.40;79.00;;;;;;5003357;28;20040;-75
2022/11/24 08:31:12;;;;;;;7.22;5.55;;;9.30;79.30;;;;;;4983889;28;20033;-74
2022/11/24 08:33:39;;;;;;;8.10;5.45;;;9.30;62.40;;;;;;5005635;28;20523;-74
2022/11/24 08:36:10;;;;;;;10.43;5.25;;;9.30;56.90;;;;;;4987528;28;20472;-75
2022/11/24 08:38:36;;;;;;;8.43;5.65;;;9.20;56.70;;;;;;4988654;28;20649;-74
2022/11/24 08:41:11;;;;;;;7.50;5.43;;;9.20;56.70;;;;;;5006679;28;20109;-74
2022/11/24 08:43:37;;;;;;;10.98;5.90;;;9.10;56.50;;;;;;4987424;28;20188;-75
2022/11/24 08:46:09;;;;;;;9.77;5.80;;;9.10;56.50;;;;;;5006621;28;20396;-75
2022/11/24 08:48:35;;;;;;;9.85;5.70;;;9.10;56.70;;;;;;5006752;28;20037;-75
2022/11/24 08:51:14;;;;;;;9.32;6.07;;;9.00;56.70;;;;;;5004620;28;20030;-74
2022/11/24 08:53:41;;;;;;;9.32;5.95;;;9.10;57.90;;;;;;5006491;28;20033;-75
2022/11/24 08:56:08;;;;;;;10.90;6.85;;;9.10;58.40;;;;;;5006598;28;20029;-76
2022/11/24 08:58:34;;;;;;;10.07;6.68;;;9.10;57.80;;;;;;5004356;28;20535;-75
2022/11/24 09:01:17;;;;;;;10.48;6.65;;;9.00;56.80;;;;;;4967487;28;20058;-76
2022/11/24 09:03:47;;;;;;;11.23;6.70;;;8.90;56.60;;;;;;5006615;28;20408;-76
2022/11/24 09:06:13;;;;;;;12.30;7.35;;;;;;;;;;4988642;28;20500;-76
2022/11/24 09:08:39;;;;;;;11.35;7.18;;;8.90;55.90;;;;;;4996989;28;20528;-76
2022/11/24 09:11:11;;;;;;;12.73;7.75;;;8.80;56.40;;;;;;5004733;28;20045;-76
2022/11/24 09:13:39;;;;;;;11.05;7.32;;;8.80;56.50;;;;;;5005613;28;20045;-75
2022/11/24 09:16:15;;;;;;;11.77;7.28;;;8.80;56.70;;;;;;5019697;28;20974;-76
2022/11/24 09:18:42;;;;;;;11.98;7.00;;;8.80;56.80;;;;;;4988091;28;20424;-75
2022/11/24 09:21:20;;;;;;;11.80;7.30;;;8.80;56.80;;;;;;5006426;28;20444;-76
2022/11/24 09:23:50;;;;;;;15.27;8.38;;;8.70;56.80;;;;;;5005806;28;20037;-76
2022/11/24 09:26:20;;;;;;;14.77;8.05;;;8.70;56.80;;;;;;5004753;28;20043;-77
2022/11/24 09:28:47;;;;;;;12.25;7.68;;;8.70;56.70;;;;;;5005347;28;20038;-77
2022/11/24 09:31:17;;;;;;;12.25;7.55;;;8.60;56.60;;;;;;5006483;28;20030;-77
2022/11/24 09:33:44;;;;;;;11.05;7.38;;;8.60;56.70;;;;;;5005587;28;20034;-74
2022/11/24 09:36:11;;;;;;;14.68;7.88;;;8.60;56.60;;;;;;5005701;28;20080;-77
2022/11/24 09:38:36;;;;;;;12.38;7.63;;;8.60;56.60;;;;;;5005111;28;20048;-75
2022/11/24 09:41:17;;;;;;;13.27;7.68;;;8.60;56.70;;;;;;5003785;28;20041;-75
2022/11/24 09:43:59;;;;;;;11.32;7.88;;;8.60;56.70;;;;;;5003434;28;20058;-76
2022/11/24 09:46:56;;;;;;;11.25;6.72;;;8.50;56.70;;;;;;5002279;28;20124;-75
2022/11/24 09:49:35;;;;;;;10.82;6.88;;;8.50;56.70;;;;;;5005162;28;20033;-75
2022/11/24 09:52:08;;;;;;;9.85;6.82;;;8.50;56.60;;;;;;5008951;28;20034;-75
2022/11/24 09:54:40;;;;;;;10.00;6.53;;;8.50;56.60;;;;;;5004191;28;20045;-75
2022/11/24 09:57:10;;;;;;;11.15;7.03;;;8.50;56.60;;;;;;5002286;28;20060;-76
2022/11/24 09:59:38;;;;;;;10.32;6.60;;;8.50;56.60;;;;;;5007665;28;20044;-75
2022/11/24 10:02:11;;;;;;;11.52;7.35;;;8.40;56.50;;;;;;5004941;28;20030;-76
2022/11/24 10:04:42;;;;;;;10.30;6.25;;;8.50;56.60;;;;;;4986855;28;20787;-74
2022/11/24 10:07:16;;;;;;;10.73;6.45;;;8.40;56.60;;;;;;5004408;28;20049;-74
2022/11/24 10:10:13;;;;;;;11.10;6.88;;;8.40;56.60;;;;;;5004002;28;20468;-74
2022/11/24 10:12:57;;;;;;;;;;;8.40;56.60;;;;;;5004530;28;20113;-74
2022/11/24 10:15:45;;;;;;;10.93;6.90;;;8.40;56.60;;;;;;4993694;28;20020;-76
2022/11/24 10:18:16;;;;;;;10.32;6.72;;;8.40;56.50;;;;;;5004591;28;20109;-76
2022/11/24 10:20:57;;;;;;;11.05;6.90;;;8.40;56.50;;;;;;5003167;28;20034;-77
2022/11/24 10:23:50;;;;;;;11.10;6.80;;;8.40;56.60;;;;;;4986780;28;20037;-76
2022/11/24 10:26:25;;;;;;;11.25;7.20;;;8.40;56.60;;;;;;5004951;28;20507;-74
2022/11/24 10:28:54;;;;;;;12.48;6.72;;;8.40;56.60;;;;;;5003081;28;20072;-75
2022/11/24 10:31:35;;;;;;;12.00;7.25;;;8.40;56.50;;;;;;5003584;28;20683;-75
2022/11/24 10:34:21;;;;;;;10.80;6.93;;;8.40;56.50;;;;;;5003642;28;20094;-74
2022/11/24 10:37:03;;;;;;;10.82;6.78;;;8.40;56.50;;;;;;5002067;28;20400;-75
2022/11/24 10:39:45;;;;;;;9.05;5.80;;;8.30;56.40;;;;;;4969633;28;20073;-76
2022/11/24 10:42:41;;;;;;;11.35;6.75;;;8.30;56.30;;;;;;5004158;28;20038;-76
2022/11/24 10:45:17;;;;;;;9.88;6.43;;;8.30;56.30;;;;;;4978066;28;20052;-76
2022/11/24 10:47:43;;;;;;;;;;;8.30;56.20;;;;;;4991551;28;20082;-75
2022/11/24 10:50:21;;;;;;;11.07;6.65;;;8.30;56.30;;;;;;5003979;28;20008;-76
2022/11/24 10:53:01;;;;;;;12.40;7.07;;;8.30;56.30;;;;;;5004331;28;20033;-76
2022/11/24 10:55:52;;;;;;;12.38;6.95;;;8.30;56.40;;;;;;4984718;28;20036;-76
2022/11/24 10:58:33;;;;;;;11.43;7.05;;;8.30;56.50;;;;;;4985626;28;20064;-76
2022/11/24 11:01:17;;;;;;;10.68;7.05;;;8.20;56.30;;;;;;4986607;28;20602;-75
2022/11/24 11:03:58;;;;;;;13.55;7.93;;;8.20;56.30;;;;;;4986696;28;20037;-75
2022/11/24 11:06:25;;;;;;;18.02;10.55;;;8.20;56.30;;;;;;5006338;28;20060;-76
2022/11/24 11:09:21;;;;;;;18.95;10.57;;;8.20;56.30;;;;;;5007556;28;20060;-76
2022/11/24 11:11:47;;;;;;;20.20;12.50;;;8.20;56.30;;;;;;4973025;28;20145;-76
2022/11/24 11:14:36;;;;;;;18.63;11.00;;;8.20;56.30;;;;;;4972923;28;20528;-74
2022/11/24 11:17:22;;;;;;;16.65;10.85;;;8.20;56.20;;;;;;5006779;28;20053;-75
2022/11/24 11:19:51;;;;;;;18.55;10.93;;;8.20;56.20;;;;;;5007527;28;20053;-76
2022/11/24 11:22:28;;;;;;;17.45;10.60;;;8.20;56.20;;;;;;5007029;28;20148;-76
2022/11/24 11:25:17;;;;;;;17.63;10.35;;;8.20;56.30;;;;;;5007125;28;20555;-76
2022/11/24 11:27:43;;;;;;;16.70;10.27;;;8.20;56.40;;;;;;5006934;28;20030;-76
2022/11/24 11:30:16;;;;;;;16.05;9.25;;;8.20;56.40;;;;;;5010157;28;20042;-76
2022/11/24 11:32:55;;;;;;;14.48;9.18;;;8.20;56.50;;;;;;5011605;28;20026;-76
2022/11/24 11:35:23;;;;;;;14.38;9.43;;;8.20;56.50;;;;;;4993779;28;20043;-76
2022/11/24 11:37:51;;;;;;;12.38;8.13;;;8.20;56.60;;;;;;5011000;28;20554;-77
2022/11/24 11:40:25;;;;;;;14.38;8.85;;;8.20;56.60;;;;;;5012070;28;20046;-75
2022/11/24 11:43:13;;;;;;;15.57;8.55;;;8.20;56.80;;;;;;4993101;28;20045;-74
2022/11/24 11:45:44;;;;;;;14.57;8.50;;;8.20;57.10;;;;;;5010617;28;20054;-74
2022/11/24 11:48:30;;;;;;;14.30;8.15;;;8.20;58.70;;;;;;5005864;28;20662;-75
2022/11/24 11:51:14;;;;;;;15.38;8.48;;;8.30;61.00;;;;;;5006350;28;20034;-74
2022/11/24 11:53:46;;;;;;;13.55;8.20;;;8.30;62.10;;;;;;5005915;28;20057;-75
2022/11/24 11:56:23;;;;;;;12.50;7.55;;;8.20;63.60;;;;;;4988454;28;20041;-74
2022/11/24 11:58:57;;;;;;;11.90;7.22;;;8.20;65.80;;;;;;5005904;28;20045;-75
2022/11/24 12:01:52;;;;;;;13.63;7.25;;;8.10;56.50;;;;;;5004217;28;20540;-75
2022/11/24 12:04:35;;;;;;;11.75;7.43;;;8.10;56.70;;;;;;5003534;28;20034;-74
2022/11/24 12:07:40;;;;;;;13.90;7.93;;;8.10;64.60;;;;;;4994072;28;20516;-74
2022/11/24 12:10:23;;;;;;;14.95;8.38;;;8.20;66.60;;;;;;4949666;28;20145;-75
2022/11/24 12:13:18;;;;;;;14.10;8.00;;;8.10;68.20;;;;;;4928810;28;21176;-74
2022/11/24 12:15:51;;;;;;;12.07;7.20;;;8.20;72.00;;;;;;4945753;28;20515;-74
2022/11/24 12:18:29;;;;;;;12.23;7.38;;;8.10;70.10;;;;;;4938902;28;20047;-74
2022/11/24 12:21:27;;;;;;;12.27;7.82;;;8.10;65.60;;;;;;4936940;28;20076;-73
2022/11/24 12:24:47;;;;;;;13.15;7.90;;;8.10;65.90;;;;;;4935974;28;20030;-74
2022/11/24 12:27:37;;;;;;;14.23;7.75;;;8.10;69.90;;;;;;4878992;29;20519;-73
2022/11/24 12:30:14;;;;;;;15.48;8.05;;;8.00;82.20;;;;;;4880805;29;20025;-74
2022/11/24 12:32:56;;;;;;;13.07;7.47;;;8.10;62.60;;;;;;4886854;29;20120;-74
2022/11/24 12:35:32;;;;;;;13.50;7.90;;;7.90;57.50;;;;;;4901398;29;20560;-73
2022/11/24 12:38:35;;;;;;;11.75;7.88;;;7.90;57.30;;;;;;4900082;29;20044;-73
2022/11/24 12:41:06;;;;;;;12.88;7.65;;;7.90;57.40;;;;;;4899580;29;20555;-75
2022/11/24 12:43:38;;;;;;;13.70;7.88;;;7.90;57.50;;;;;;4898903;29;20382;-76
2022/11/24 12:46:34;;;;;;;13.95;8.18;;;7.90;57.50;;;;;;4908618;28;20039;-75
2022/11/24 12:49:05;;;;;;;12.77;7.03;;;7.90;57.50;;;;;;4928379;28;20130;-75
2022/11/24 12:51:37;;;;;;;14.88;8.25;;;7.80;57.40;;;;;;4928854;28;20927;-75
2022/11/24 12:54:12;;;;;;;14.27;7.95;;;7.80;57.50;;;;;;4945164;28;20047;-77
2022/11/24 12:57:12;;;;;;;15.75;8.07;;;7.90;57.50;;;;;;4945423;29;20035;-74
2022/11/24 12:59:48;;;;;;;13.60;7.38;;;7.80;57.40;;;;;;4943461;29;20126;-73
2022/11/24 13:02:26;;;;;;;14.65;7.57;;;7.80;57.10;;;;;;5003960;28;20049;-74
2022/11/24 13:05:14;;;;;;;11.68;7.60;;;7.80;57.00;;;;;;5005716;28;20030;-74
2022/11/24 13:07:46;;;;;;;12.18;7.25;;;7.80;57.40;;;;;;4988208;28;20038;-74
2022/11/24 13:10:25;;;;;;;12.02;6.78;;;7.80;56.90;;;;;;5006599;28;20042;-74
2022/11/24 13:13:11;;;;;;;12.15;7.00;;;7.70;57.00;;;;;;5003906;28;20065;-74
2022/11/24 13:15:52;;;;;;;10.98;6.93;;;7.80;57.00;;;;;;5002264;28;20038;-75
2022/11/24 13:18:42;;;;;;;10.15;6.75;;;7.70;57.00;;;;;;4991757;28;20557;-75